Pernille — 5BNZ2 — position and weather

sailwx.info

Track history (hours):
 
Tides and Currents Weather Stations Pressure Air Temp Water Temp Dewpoint Dewpoint Depression Visibility Wind Speed Wind Dir Waves Ship Positions

Pernille

Last reported at 2018-Feb-22 11:26 UTC. Time now 2018-Feb-25 13:53 UTC.
Position N 59°07' E 017°41'.

Length 83 m; draft 3.9 m.

Type: Cargo ship. MMSI: 212662000.

Date/timePositionNaut miles runAvg speedWind from/ knotsBaromVisibWave heightAir tempDewpointWater temp
2018-Feb-22 11:26N 59°07' E 017°41'4 8.2
2018-Feb-22 10:57N 59°03' E 017°42'511.0
2018-Feb-22 10:30N 58°58' E 017°43'611.3
2018-Feb-22 10:00N 58°53' E 017°43'510.9
2018-Feb-22 09:30N 58°47' E 017°46'510.9
2018-Feb-22 09:00N 58°43' E 017°52'13 7.5
2018-Feb-22 07:16N 58°44' E 018°17'410.1
2018-Feb-22 06:50N 58°45' E 018°25'15611.1
2018-Feb-21 16:43N 59°31' E 023°16'411.7
2018-Feb-21 16:20N 59°31' E 023°25'411.5
2018-Feb-21 15:59N 59°31' E 023°33'611.8
2018-Feb-21 15:30N 59°31' E 023°44'1411.8
2018-Feb-21 14:18N 59°30' E 024°12'311.8
2018-Feb-21 14:00N 59°30' E 024°19'611.4
2018-Feb-21 13:30N 59°30' E 024°30'0 0.9
2018-Feb-21 12:59N 59°29' E 024°31'0 0.0
2018-Feb-21 12:29N 59°29' E 024°31'0 0.0
2018-Feb-21 11:59N 59°29' E 024°31'0 0.0
2018-Feb-21 11:29N 59°29' E 024°31'0 0.0
2018-Feb-21 10:59N 59°29' E 024°31'0 0.0
2018-Feb-21 10:29N 59°29' E 024°31'0 0.0
2018-Feb-21 09:59N 59°29' E 024°31'0 0.0
2018-Feb-21 09:29N 59°29' E 024°31'0 0.2
2018-Feb-21 08:59N 59°29' E 024°31'0 0.0
2018-Feb-21 08:29N 59°29' E 024°31'0 0.0
2018-Feb-21 07:59N 59°29' E 024°31'0 0.0
2018-Feb-21 07:29N 59°29' E 024°31'0 0.0
2018-Feb-21 06:59N 59°29' E 024°31'0 0.0
2018-Feb-21 06:29N 59°29' E 024°31'0 0.1
2018-Feb-21 05:59N 59°29' E 024°31'0 0.0
2018-Feb-21 05:29N 59°29' E 024°31'0 0.0
2018-Feb-21 04:59N 59°29' E 024°31'0 0.0
2018-Feb-21 04:29N 59°29' E 024°31'0 0.0
2018-Feb-21 03:59N 59°29' E 024°31'0 0.0
2018-Feb-21 03:29N 59°29' E 024°31'0 0.0
2018-Feb-21 02:59N 59°29' E 024°31'0 0.0
2018-Feb-21 02:29N 59°29' E 024°31'0 0.0
2018-Feb-21 01:59N 59°29' E 024°31'0 0.0
2018-Feb-21 01:29N 59°29' E 024°31'0 0.0
2018-Feb-21 00:59N 59°29' E 024°31'0 0.0
2018-Feb-21 00:30N 59°29' E 024°31'0 0.0
2018-Feb-20 23:59N 59°29' E 024°31'0 0.0
2018-Feb-20 23:29N 59°29' E 024°31'0 0.9
2018-Feb-20 23:00N 59°30' E 024°30'510.0
2018-Feb-20 22:30N 59°34' E 024°25'611.4
2018-Feb-20 22:00N 59°39' E 024°28'612.2
2018-Feb-20 21:30N 59°43' E 024°37'611.3
2018-Feb-20 21:00N 59°48' E 024°42'612.0
2018-Feb-20 20:30N 59°50' E 024°53'712.2
2018-Feb-20 19:55N 59°52' E 025°07'511.6
2018-Feb-20 19:30N 59°53' E 025°16'711.5
2018-Feb-20 18:56N 59°54' E 025°29'2510.9
2018-Feb-20 16:40N 60°06' E 026°12'1 9.0
2018-Feb-20 16:30N 60°07' E 026°14'510.5
2018-Feb-20 16:00N 60°11' E 026°21'510.5
2018-Feb-20 15:31N 60°15' E 026°27'5 9.9
2018-Feb-20 15:00N 60°19' E 026°34'5 9.8
2018-Feb-20 14:30N 60°22' E 026°41'5 9.0
2018-Feb-20 14:00N 60°24' E 026°50'3 6.9
2018-Feb-20 13:30N 60°26' E 026°56'0 0.6
2018-Feb-20 13:00N 60°26' E 026°55'0 0.0
2018-Feb-20 12:30N 60°26' E 026°55'0 0.0
2018-Feb-20 12:00N 60°26' E 026°55'0 0.0
2018-Feb-20 11:30N 60°26' E 026°55'0 0.0
2018-Feb-20 11:00N 60°26' E 026°55'0 0.0
2018-Feb-20 10:30N 60°26' E 026°55'0 0.0
2018-Feb-20 10:00N 60°26' E 026°55'0 0.0
2018-Feb-20 09:30N 60°26' E 026°55'0 0.0
2018-Feb-20 09:00N 60°26' E 026°55'0 0.0
2018-Feb-20 08:30N 60°26' E 026°55'0 0.0
2018-Feb-20 08:00N 60°26' E 026°55'0 0.0
2018-Feb-20 07:30N 60°26' E 026°55'0 0.0
2018-Feb-20 07:00N 60°26' E 026°55'0 0.0
2018-Feb-20 06:30N 60°26' E 026°55'0 0.0
2018-Feb-20 06:00N 60°26' E 026°55'0 0.0
2018-Feb-20 05:30N 60°26' E 026°55'0 0.0
2018-Feb-20 05:00N 60°26' E 026°55'0 0.0
2018-Feb-20 04:30N 60°26' E 026°55'0 0.0
2018-Feb-20 04:00N 60°26' E 026°55'0 0.0
2018-Feb-20 03:30N 60°26' E 026°55'0 0.0
2018-Feb-20 03:00N 60°26' E 026°55'0 0.0
2018-Feb-20 02:30N 60°26' E 026°55'0 0.0
2018-Feb-20 02:00N 60°26' E 026°55'0 0.0
2018-Feb-20 01:30N 60°26' E 026°55'0 0.0
2018-Feb-20 01:00N 60°26' E 026°55'0 0.0
2018-Feb-20 00:30N 60°26' E 026°55'0 0.0
2018-Feb-20 00:00N 60°26' E 026°55'0 0.0
2018-Feb-19 23:30N 60°26' E 026°55'0 0.0
2018-Feb-19 23:00N 60°26' E 026°55'0 0.0
2018-Feb-19 22:30N 60°26' E 026°55'0 0.0
2018-Feb-19 22:00N 60°26' E 026°55'0 0.0
2018-Feb-19 21:30N 60°26' E 026°55'0 0.0
2018-Feb-19 21:00N 60°26' E 026°55'0 0.0
2018-Feb-19 20:30N 60°26' E 026°55'0 0.0
2018-Feb-19 19:57N 60°26' E 026°55'0 0.0
2018-Feb-19 19:30N 60°26' E 026°55'0 0.0
2018-Feb-19 19:00N 60°26' E 026°55'0 0.0
2018-Feb-19 18:30N 60°26' E 026°55'0 0.0
2018-Feb-19 18:00N 60°26' E 026°55'0 0.0
2018-Feb-19 17:30N 60°26' E 026°55'0 0.0
2018-Feb-19 17:00N 60°26' E 026°55'0 0.0
2018-Feb-19 16:30N 60°26' E 026°55'0 0.0
2018-Feb-19 16:00N 60°26' E 026°55'0 0.0
2018-Feb-19 15:30N 60°26' E 026°55'0 0.0
2018-Feb-19 15:00N 60°26' E 026°55'0 0.0
2018-Feb-19 14:30N 60°26' E 026°55'0 0.0
2018-Feb-19 14:00N 60°26' E 026°55'0 0.0
2018-Feb-19 13:30N 60°26' E 026°55'0 0.0
2018-Feb-19 13:00N 60°26' E 026°55'0 0.0
2018-Feb-19 12:30N 60°26' E 026°55'0 0.0
2018-Feb-19 12:00N 60°26' E 026°55'0 0.0
2018-Feb-19 11:31N 60°26' E 026°55'1 1.6
2018-Feb-19 11:01N 60°25' E 026°55'4 8.2
2018-Feb-19 10:31N 60°23' E 026°47'4 7.3
2018-Feb-19 10:01N 60°22' E 026°40'4 8.1
2018-Feb-19 09:31N 60°19' E 026°35'510.0
2018-Feb-19 09:01N 60°15' E 026°27'3 6.0
2018-Feb-19 08:30N 60°13' E 026°24'3 6.7
2018-Feb-19 08:01N 60°10' E 026°24'1 1.9
2018-Feb-19 07:28N 60°09' E 026°26'0 0.1
2018-Feb-19 06:58N 60°09' E 026°26'0 0.0
2018-Feb-19 06:28N 60°09' E 026°26'0 0.0
2018-Feb-19 05:58N 60°09' E 026°26'0 0.0
2018-Feb-19 05:31N 60°09' E 026°26'0 0.0
2018-Feb-19 05:01N 60°09' E 026°26'0 0.0
2018-Feb-19 04:28N 60°09' E 026°26'0 0.0
2018-Feb-19 03:58N 60°09' E 026°26'0 0.0
2018-Feb-19 03:28N 60°09' E 026°26'0 0.0
2018-Feb-19 03:00N 60°09' E 026°26'0 0.1
2018-Feb-19 02:28N 60°09' E 026°26'0 0.0
2018-Feb-19 02:01N 60°09' E 026°26'0 0.0
2018-Feb-19 01:31N 60°09' E 026°26'0 0.0
2018-Feb-19 00:58N 60°09' E 026°26'0 0.1
2018-Feb-19 00:31N 60°09' E 026°26'0 0.0
2018-Feb-18 23:58N 60°09' E 026°26'0 0.0
2018-Feb-18 23:28N 60°09' E 026°26'0 0.0
2018-Feb-18 23:01N 60°09' E 026°26'0 0.1
2018-Feb-18 22:28N 60°09' E 026°26'0 0.1
2018-Feb-18 21:59N 60°09' E 026°26'0 0.0
2018-Feb-18 21:30N 60°09' E 026°26'0 0.0
2018-Feb-18 20:58N 60°09' E 026°26'0 0.0
2018-Feb-18 20:31N 60°09' E 026°26'0 0.0
2018-Feb-18 19:58N 60°09' E 026°26'0 0.0
2018-Feb-18 19:28N 60°09' E 026°26'0 0.0
2018-Feb-18 18:59N 60°09' E 026°26'0 0.0
2018-Feb-18 18:25N 60°09' E 026°26'0 0.0
2018-Feb-18 17:58N 60°09' E 026°26'0 0.0
2018-Feb-18 17:28N 60°09' E 026°26'0 0.0
2018-Feb-18 16:58N 60°09' E 026°26'0 0.1
2018-Feb-18 16:31N 60°09' E 026°26'0 0.0
2018-Feb-18 15:59N 60°09' E 026°26'0 0.1
2018-Feb-18 15:30N 60°09' E 026°26'4 7.9
2018-Feb-18 15:00N 60°06' E 026°20'5 9.0
2018-Feb-18 14:30N 60°03' E 026°14'4010.3
2018-Feb-18 10:38N 59°47' E 024°60'111.0
2018-Feb-18 10:30N 59°47' E 024°57'611.3
2018-Feb-18 10:00N 59°46' E 024°46'510.9
2018-Feb-18 09:30N 59°45' E 024°36'611.2
2018-Feb-18 09:00N 59°43' E 024°25'1111.3
2018-Feb-18 08:00N 59°40' E 024°04'611.3
2018-Feb-18 07:30N 59°38' E 023°53'611.5
2018-Feb-18 07:00N 59°36' E 023°42'611.4
2018-Feb-18 06:30N 59°34' E 023°32'611.4
2018-Feb-18 06:00N 59°32' E 023°21'30310.7
2018-Feb-17 01:36N 55°60' E 016°36'110.9
2018-Feb-17 01:30N 55°59' E 016°35'510.8
2018-Feb-17 01:00N 55°57' E 016°26'510.8
2018-Feb-17 00:30N 55°54' E 016°18'510.6
2018-Feb-17 00:00N 55°52' E 016°09'510.7
2018-Feb-16 23:30N 55°49' E 016°01'510.6
2018-Feb-16 23:00N 55°47' E 015°53'510.7
2018-Feb-16 22:30N 55°44' E 015°45'511.0
2018-Feb-16 22:00N 55°41' E 015°36'611.1
2018-Feb-16 21:30N 55°38' E 015°28'511.0
2018-Feb-16 21:00N 55°35' E 015°20'510.9
2018-Feb-16 20:30N 55°33' E 015°11'910.9
2018-Feb-16 19:40N 55°29' E 014°57'310.8
2018-Feb-16 19:22N 55°27' E 014°52'1010.6
2018-Feb-16 18:28N 55°22' E 014°38'1110.5
2018-Feb-16 17:28N 55°14' E 014°26'510.5
2018-Feb-16 17:00N 55°10' E 014°21'7710.6
2018-Feb-16 09:44N 54°34' E 012°23'14 9.5
2018-Feb-16 08:16N 54°24' E 012°06'310.6
2018-Feb-16 07:59N 54°24' E 012°01'510.6
2018-Feb-16 07:30N 54°24' E 011°52'5 9.9
2018-Feb-16 06:59N 54°25' E 011°43'510.6
2018-Feb-16 06:30N 54°27' E 011°36'510.5
2018-Feb-16 06:00N 54°30' E 011°27'510.2
2018-Feb-16 05:30N 54°32' E 011°20'5 9.9
2018-Feb-16 05:00N 54°34' E 011°12'5 9.3
2018-Feb-16 04:30N 54°35' E 011°04'510.6
2018-Feb-16 04:00N 54°34' E 010°55'611.0
2018-Feb-16 03:30N 54°34' E 010°46'611.2
2018-Feb-16 03:00N 54°33' E 010°36'29 5.8
2018-Feb-15 22:01N 54°22' E 009°50'0 8.4
2018-Feb-15 22:00N 54°22' E 009°50'3 5.7
2018-Feb-15 21:30N 54°21' E 009°45'3 5.4
2018-Feb-15 21:00N 54°19' E 009°43'3 6.5
2018-Feb-15 20:31N 54°17' E 009°38'3 6.8
2018-Feb-15 20:00N 54°14' E 009°36'3 7.0
2018-Feb-15 19:30N 54°11' E 009°31'3 6.9
2018-Feb-15 19:00N 54°10' E 009°26'3 5.9
2018-Feb-15 18:30N 54°09' E 009°21'3 5.1
2018-Feb-15 17:49N 54°05' E 009°20'2 7.3
2018-Feb-15 17:30N 54°03' E 009°18'4 7.2
2018-Feb-15 17:01N 53°60' E 009°17'4 8.5
2018-Feb-15 16:30N 53°56' E 009°13'4 7.4
2018-Feb-15 16:00N 53°54' E 009°09'0 0.6
2018-Feb-15 15:31N 53°53' E 009°09'3 5.8
2018-Feb-15 15:00N 53°52' E 009°04'510.7
2018-Feb-15 14:30N 53°51' E 008°55'510.9
2018-Feb-15 14:01N 53°51' E 008°46'267 9.9
2018-Feb-14 10:52N 51°37' E 002°24'411.6
2018-Feb-14 10:30N 51°34' E 002°19'611.3
2018-Feb-14 10:00N 51°29' E 002°14'511.0
2018-Feb-14 09:30N 51°25' E 002°09'510.7
2018-Feb-14 09:00N 51°20' E 002°07'510.4
2018-Feb-14 08:30N 51°15' E 002°04'5 9.9
2018-Feb-14 08:00N 51°12' E 001°58'5 9.6
2018-Feb-14 07:30N 51°09' E 001°52'5 9.3
2018-Feb-14 07:00N 51°06' E 001°46'4 9.0
2018-Feb-14 06:30N 51°03' E 001°41'4 9.0
2018-Feb-14 06:01N 50°60' E 001°36'5 9.3
2018-Feb-14 05:30N 50°56' E 001°31'5 9.8
2018-Feb-14 05:00N 50°51' E 001°28'510.5
2018-Feb-14 04:29N 50°46' E 001°25'10610.9
2018-Feb-13 18:47N 50°06' W 001°08'413.4
2018-Feb-13 18:30N 50°05' W 001°13'713.5
2018-Feb-13 18:01N 50°03' W 001°24'713.2
2018-Feb-13 17:30N 50°01' W 001°34'612.8
2018-Feb-13 17:00N 49°60' W 001°43'612.1
2018-Feb-13 16:31N 49°58' W 001°52'611.6
2018-Feb-13 16:00N 49°57' W 002°01'510.7
2018-Feb-13 15:30N 49°55' W 002°09'510.0
2018-Feb-13 15:00N 49°54' W 002°17'5 9.6
2018-Feb-13 14:31N 49°53' W 002°24'5 9.4
2018-Feb-13 14:00N 49°52' W 002°31'5 9.2
2018-Feb-13 13:29N 49°50' W 002°38'4 9.1
2018-Feb-13 13:00N 49°49' W 002°45'5 9.0
2018-Feb-13 12:30N 49°48' W 002°51'4 9.0
2018-Feb-13 12:00N 49°46' W 002°58'4 8.9
2018-Feb-13 11:30N 49°44' W 003°04'4 8.9
2018-Feb-13 11:00N 49°42' W 003°10'  
Track history (hours):
 
Tides and Currents Weather Stations Pressure Air Temp Water Temp Dewpoint Dewpoint Depression Visibility Wind Speed Wind Dir Waves Ship Positions

Pernille

Last reported at 2018-Feb-22 11:26 UTC. Time now 2018-Feb-25 13:53 UTC.
Position N 59°07' E 017°41'.

Length 83 m; draft 3.9 m.

Type: Cargo ship. MMSI: 212662000.

Date/timePositionNaut miles runAvg speedWind from/ knotsBaromVisibWave heightAir tempDewpointWater temp
2018-Feb-22 11:26N 59°07' E 017°41'4 8.2
2018-Feb-22 10:57N 59°03' E 017°42'511.0
2018-Feb-22 10:30N 58°58' E 017°43'611.3
2018-Feb-22 10:00N 58°53' E 017°43'510.9
2018-Feb-22 09:30N 58°47' E 017°46'510.9
2018-Feb-22 09:00N 58°43' E 017°52'13 7.5
2018-Feb-22 07:16N 58°44' E 018°17'410.1
2018-Feb-22 06:50N 58°45' E 018°25'15611.1
2018-Feb-21 16:43N 59°31' E 023°16'411.7
2018-Feb-21 16:20N 59°31' E 023°25'411.5
2018-Feb-21 15:59N 59°31' E 023°33'611.8
2018-Feb-21 15:30N 59°31' E 023°44'1411.8
2018-Feb-21 14:18N 59°30' E 024°12'311.8
2018-Feb-21 14:00N 59°30' E 024°19'611.4
2018-Feb-21 13:30N 59°30' E 024°30'0 0.9
2018-Feb-21 12:59N 59°29' E 024°31'0 0.0
2018-Feb-21 12:29N 59°29' E 024°31'0 0.0
2018-Feb-21 11:59N 59°29' E 024°31'0 0.0
2018-Feb-21 11:29N 59°29' E 024°31'0 0.0
2018-Feb-21 10:59N 59°29' E 024°31'0 0.0
2018-Feb-21 10:29N 59°29' E 024°31'0 0.0
2018-Feb-21 09:59N 59°29' E 024°31'0 0.0
2018-Feb-21 09:29N 59°29' E 024°31'0 0.2
2018-Feb-21 08:59N 59°29' E 024°31'0 0.0
2018-Feb-21 08:29N 59°29' E 024°31'0 0.0
2018-Feb-21 07:59N 59°29' E 024°31'0 0.0
2018-Feb-21 07:29N 59°29' E 024°31'0 0.0
2018-Feb-21 06:59N 59°29' E 024°31'0 0.0
2018-Feb-21 06:29N 59°29' E 024°31'0 0.1
2018-Feb-21 05:59N 59°29' E 024°31'0 0.0
2018-Feb-21 05:29N 59°29' E 024°31'0 0.0
2018-Feb-21 04:59N 59°29' E 024°31'0 0.0
2018-Feb-21 04:29N 59°29' E 024°31'0 0.0
2018-Feb-21 03:59N 59°29' E 024°31'0 0.0
2018-Feb-21 03:29N 59°29' E 024°31'0 0.0
2018-Feb-21 02:59N 59°29' E 024°31'0 0.0
2018-Feb-21 02:29N 59°29' E 024°31'0 0.0
2018-Feb-21 01:59N 59°29' E 024°31'0 0.0
2018-Feb-21 01:29N 59°29' E 024°31'0 0.0
2018-Feb-21 00:59N 59°29' E 024°31'0 0.0
2018-Feb-21 00:30N 59°29' E 024°31'0 0.0
2018-Feb-20 23:59N 59°29' E 024°31'0 0.0
2018-Feb-20 23:29N 59°29' E 024°31'0 0.9
2018-Feb-20 23:00N 59°30' E 024°30'510.0
2018-Feb-20 22:30N 59°34' E 024°25'611.4
2018-Feb-20 22:00N 59°39' E 024°28'612.2
2018-Feb-20 21:30N 59°43' E 024°37'611.3
2018-Feb-20 21:00N 59°48' E 024°42'612.0
2018-Feb-20 20:30N 59°50' E 024°53'712.2
2018-Feb-20 19:55N 59°52' E 025°07'511.6
2018-Feb-20 19:30N 59°53' E 025°16'711.5
2018-Feb-20 18:56N 59°54' E 025°29'2510.9
2018-Feb-20 16:40N 60°06' E 026°12'1 9.0
2018-Feb-20 16:30N 60°07' E 026°14'510.5
2018-Feb-20 16:00N 60°11' E 026°21'510.5
2018-Feb-20 15:31N 60°15' E 026°27'5 9.9
2018-Feb-20 15:00N 60°19' E 026°34'5 9.8
2018-Feb-20 14:30N 60°22' E 026°41'5 9.0
2018-Feb-20 14:00N 60°24' E 026°50'3 6.9
2018-Feb-20 13:30N 60°26' E 026°56'0 0.6
2018-Feb-20 13:00N 60°26' E 026°55'0 0.0
2018-Feb-20 12:30N 60°26' E 026°55'0 0.0
2018-Feb-20 12:00N 60°26' E 026°55'0 0.0
2018-Feb-20 11:30N 60°26' E 026°55'0 0.0
2018-Feb-20 11:00N 60°26' E 026°55'0 0.0
2018-Feb-20 10:30N 60°26' E 026°55'0 0.0
2018-Feb-20 10:00N 60°26' E 026°55'0 0.0
2018-Feb-20 09:30N 60°26' E 026°55'0 0.0
2018-Feb-20 09:00N 60°26' E 026°55'0 0.0
2018-Feb-20 08:30N 60°26' E 026°55'0 0.0
2018-Feb-20 08:00N 60°26' E 026°55'0 0.0
2018-Feb-20 07:30N 60°26' E 026°55'0 0.0
2018-Feb-20 07:00N 60°26' E 026°55'0 0.0
2018-Feb-20 06:30N 60°26' E 026°55'0 0.0
2018-Feb-20 06:00N 60°26' E 026°55'0 0.0
2018-Feb-20 05:30N 60°26' E 026°55'0 0.0
2018-Feb-20 05:00N 60°26' E 026°55'0 0.0
2018-Feb-20 04:30N 60°26' E 026°55'0 0.0
2018-Feb-20 04:00N 60°26' E 026°55'0 0.0
2018-Feb-20 03:30N 60°26' E 026°55'0 0.0
2018-Feb-20 03:00N 60°26' E 026°55'0 0.0
2018-Feb-20 02:30N 60°26' E 026°55'0 0.0
2018-Feb-20 02:00N 60°26' E 026°55'0 0.0
2018-Feb-20 01:30N 60°26' E 026°55'0 0.0
2018-Feb-20 01:00N 60°26' E 026°55'0 0.0
2018-Feb-20 00:30N 60°26' E 026°55'0 0.0
2018-Feb-20 00:00N 60°26' E 026°55'0 0.0
2018-Feb-19 23:30N 60°26' E 026°55'0 0.0
2018-Feb-19 23:00N 60°26' E 026°55'0 0.0
2018-Feb-19 22:30N 60°26' E 026°55'0 0.0
2018-Feb-19 22:00N 60°26' E 026°55'0 0.0
2018-Feb-19 21:30N 60°26' E 026°55'0 0.0
2018-Feb-19 21:00N 60°26' E 026°55'0 0.0
2018-Feb-19 20:30N 60°26' E 026°55'0 0.0
2018-Feb-19 19:57N 60°26' E 026°55'0 0.0
2018-Feb-19 19:30N 60°26' E 026°55'0 0.0
2018-Feb-19 19:00N 60°26' E 026°55'0 0.0
2018-Feb-19 18:30N 60°26' E 026°55'0 0.0
2018-Feb-19 18:00N 60°26' E 026°55'0 0.0
2018-Feb-19 17:30N 60°26' E 026°55'0 0.0
2018-Feb-19 17:00N 60°26' E 026°55'0 0.0
2018-Feb-19 16:30N 60°26' E 026°55'0 0.0
2018-Feb-19 16:00N 60°26' E 026°55'0 0.0
2018-Feb-19 15:30N 60°26' E 026°55'0 0.0
2018-Feb-19 15:00N 60°26' E 026°55'0 0.0
2018-Feb-19 14:30N 60°26' E 026°55'0 0.0
2018-Feb-19 14:00N 60°26' E 026°55'0 0.0
2018-Feb-19 13:30N 60°26' E 026°55'0 0.0
2018-Feb-19 13:00N 60°26' E 026°55'0 0.0
2018-Feb-19 12:30N 60°26' E 026°55'0 0.0
2018-Feb-19 12:00N 60°26' E 026°55'0 0.0
2018-Feb-19 11:31N 60°26' E 026°55'1 1.6
2018-Feb-19 11:01N 60°25' E 026°55'4 8.2
2018-Feb-19 10:31N 60°23' E 026°47'4 7.3
2018-Feb-19 10:01N 60°22' E 026°40'4 8.1
2018-Feb-19 09:31N 60°19' E 026°35'510.0
2018-Feb-19 09:01N 60°15' E 026°27'3 6.0
2018-Feb-19 08:30N 60°13' E 026°24'3 6.7
2018-Feb-19 08:01N 60°10' E 026°24'1 1.9
2018-Feb-19 07:28N 60°09' E 026°26'0 0.1
2018-Feb-19 06:58N 60°09' E 026°26'0 0.0
2018-Feb-19 06:28N 60°09' E 026°26'0 0.0
2018-Feb-19 05:58N 60°09' E 026°26'0 0.0
2018-Feb-19 05:31N 60°09' E 026°26'0 0.0
2018-Feb-19 05:01N 60°09' E 026°26'0 0.0
2018-Feb-19 04:28N 60°09' E 026°26'0 0.0
2018-Feb-19 03:58N 60°09' E 026°26'0 0.0
2018-Feb-19 03:28N 60°09' E 026°26'0 0.0
2018-Feb-19 03:00N 60°09' E 026°26'0 0.1
2018-Feb-19 02:28N 60°09' E 026°26'0 0.0
2018-Feb-19 02:01N 60°09' E 026°26'0 0.0
2018-Feb-19 01:31N 60°09' E 026°26'0 0.0
2018-Feb-19 00:58N 60°09' E 026°26'0 0.1
2018-Feb-19 00:31N 60°09' E 026°26'0 0.0
2018-Feb-18 23:58N 60°09' E 026°26'0 0.0
2018-Feb-18 23:28N 60°09' E 026°26'0 0.0
2018-Feb-18 23:01N 60°09' E 026°26'0 0.1
2018-Feb-18 22:28N 60°09' E 026°26'0 0.1
2018-Feb-18 21:59N 60°09' E 026°26'0 0.0
2018-Feb-18 21:30N 60°09' E 026°26'0 0.0
2018-Feb-18 20:58N 60°09' E 026°26'0 0.0
2018-Feb-18 20:31N 60°09' E 026°26'0 0.0
2018-Feb-18 19:58N 60°09' E 026°26'0 0.0
2018-Feb-18 19:28N 60°09' E 026°26'0 0.0
2018-Feb-18 18:59N 60°09' E 026°26'0 0.0
2018-Feb-18 18:25N 60°09' E 026°26'0 0.0
2018-Feb-18 17:58N 60°09' E 026°26'0 0.0
2018-Feb-18 17:28N 60°09' E 026°26'0 0.0
2018-Feb-18 16:58N 60°09' E 026°26'0 0.1
2018-Feb-18 16:31N 60°09' E 026°26'0 0.0
2018-Feb-18 15:59N 60°09' E 026°26'0 0.1
2018-Feb-18 15:30N 60°09' E 026°26'4 7.9
2018-Feb-18 15:00N 60°06' E 026°20'5 9.0
2018-Feb-18 14:30N 60°03' E 026°14'4010.3
2018-Feb-18 10:38N 59°47' E 024°60'111.0
2018-Feb-18 10:30N 59°47' E 024°57'611.3
2018-Feb-18 10:00N 59°46' E 024°46'510.9
2018-Feb-18 09:30N 59°45' E 024°36'611.2
2018-Feb-18 09:00N 59°43' E 024°25'1111.3
2018-Feb-18 08:00N 59°40' E 024°04'611.3
2018-Feb-18 07:30N 59°38' E 023°53'611.5
2018-Feb-18 07:00N 59°36' E 023°42'611.4
2018-Feb-18 06:30N 59°34' E 023°32'611.4
2018-Feb-18 06:00N 59°32' E 023°21'30310.7
2018-Feb-17 01:36N 55°60' E 016°36'110.9
2018-Feb-17 01:30N 55°59' E 016°35'510.8
2018-Feb-17 01:00N 55°57' E 016°26'510.8
2018-Feb-17 00:30N 55°54' E 016°18'510.6
2018-Feb-17 00:00N 55°52' E 016°09'510.7
2018-Feb-16 23:30N 55°49' E 016°01'510.6
2018-Feb-16 23:00N 55°47' E 015°53'510.7
2018-Feb-16 22:30N 55°44' E 015°45'511.0
2018-Feb-16 22:00N 55°41' E 015°36'611.1
2018-Feb-16 21:30N 55°38' E 015°28'511.0
2018-Feb-16 21:00N 55°35' E 015°20'510.9
2018-Feb-16 20:30N 55°33' E 015°11'910.9
2018-Feb-16 19:40N 55°29' E 014°57'310.8
2018-Feb-16 19:22N 55°27' E 014°52'1010.6
2018-Feb-16 18:28N 55°22' E 014°38'1110.5
2018-Feb-16 17:28N 55°14' E 014°26'510.5
2018-Feb-16 17:00N 55°10' E 014°21'7710.6
2018-Feb-16 09:44N 54°34' E 012°23'14 9.5
2018-Feb-16 08:16N 54°24' E 012°06'310.6
2018-Feb-16 07:59N 54°24' E 012°01'510.6
2018-Feb-16 07:30N 54°24' E 011°52'5 9.9
2018-Feb-16 06:59N 54°25' E 011°43'510.6
2018-Feb-16 06:30N 54°27' E 011°36'510.5
2018-Feb-16 06:00N 54°30' E 011°27'510.2
2018-Feb-16 05:30N 54°32' E 011°20'5 9.9
2018-Feb-16 05:00N 54°34' E 011°12'5 9.3
2018-Feb-16 04:30N 54°35' E 011°04'510.6
2018-Feb-16 04:00N 54°34' E 010°55'611.0
2018-Feb-16 03:30N 54°34' E 010°46'611.2
2018-Feb-16 03:00N 54°33' E 010°36'29 5.8
2018-Feb-15 22:01N 54°22' E 009°50'0 8.4
2018-Feb-15 22:00N 54°22' E 009°50'3 5.7
2018-Feb-15 21:30N 54°21' E 009°45'3 5.4
2018-Feb-15 21:00N 54°19' E 009°43'3 6.5
2018-Feb-15 20:31N 54°17' E 009°38'3 6.8
2018-Feb-15 20:00N 54°14' E 009°36'3 7.0
2018-Feb-15 19:30N 54°11' E 009°31'3 6.9
2018-Feb-15 19:00N 54°10' E 009°26'3 5.9
2018-Feb-15 18:30N 54°09' E 009°21'3 5.1
2018-Feb-15 17:49N 54°05' E 009°20'2 7.3
2018-Feb-15 17:30N 54°03' E 009°18'4 7.2
2018-Feb-15 17:01N 53°60' E 009°17'4 8.5
2018-Feb-15 16:30N 53°56' E 009°13'4 7.4
2018-Feb-15 16:00N 53°54' E 009°09'0 0.6
2018-Feb-15 15:31N 53°53' E 009°09'3 5.8
2018-Feb-15 15:00N 53°52' E 009°04'510.7
2018-Feb-15 14:30N 53°51' E 008°55'510.9
2018-Feb-15 14:01N 53°51' E 008°46'267 9.9
2018-Feb-14 10:52N 51°37' E 002°24'411.6
2018-Feb-14 10:30N 51°34' E 002°19'611.3
2018-Feb-14 10:00N 51°29' E 002°14'511.0
2018-Feb-14 09:30N 51°25' E 002°09'510.7
2018-Feb-14 09:00N 51°20' E 002°07'510.4
2018-Feb-14 08:30N 51°15' E 002°04'5 9.9
2018-Feb-14 08:00N 51°12' E 001°58'5 9.6
2018-Feb-14 07:30N 51°09' E 001°52'5 9.3
2018-Feb-14 07:00N 51°06' E 001°46'4 9.0
2018-Feb-14 06:30N 51°03' E 001°41'4 9.0
2018-Feb-14 06:01N 50°60' E 001°36'5 9.3
2018-Feb-14 05:30N 50°56' E 001°31'5 9.8
2018-Feb-14 05:00N 50°51' E 001°28'510.5
2018-Feb-14 04:29N 50°46' E 001°25'10610.9
2018-Feb-13 18:47N 50°06' W 001°08'413.4
2018-Feb-13 18:30N 50°05' W 001°13'713.5
2018-Feb-13 18:01N 50°03' W 001°24'713.2
2018-Feb-13 17:30N 50°01' W 001°34'612.8
2018-Feb-13 17:00N 49°60' W 001°43'612.1
2018-Feb-13 16:31N 49°58' W 001°52'611.6
2018-Feb-13 16:00N 49°57' W 002°01'510.7
2018-Feb-13 15:30N 49°55' W 002°09'510.0
2018-Feb-13 15:00N 49°54' W 002°17'5 9.6
2018-Feb-13 14:31N 49°53' W 002°24'5 9.4
2018-Feb-13 14:00N 49°52' W 002°31'5 9.2
2018-Feb-13 13:29N 49°50' W 002°38'4 9.1
2018-Feb-13 13:00N 49°49' W 002°45'5 9.0
2018-Feb-13 12:30N 49°48' W 002°51'4 9.0
2018-Feb-13 12:00N 49°46' W 002°58'4 8.9
2018-Feb-13 11:30N 49°44' W 003°04'4 8.9
2018-Feb-13 11:00N 49°42' W 003°10'  

Dump ship's entire track history